sensor_id;sensor_type;location;lat;lon;timestamp;P1;durP1;ratioP1;P2;durP2;ratioP2
18867;SDS011;9563;49.240;9.088;2023-12-20T05:02:18;5.27;;;4.03;;
18867;SDS011;9563;49.240;9.088;2023-12-20T05:04:45;6.73;;;4.00;;
18867;SDS011;9563;49.240;9.088;2023-12-20T05:07:12;8.00;;;4.53;;
18867;SDS011;9563;49.240;9.088;2023-12-20T05:09:38;6.77;;;3.97;;
18867;SDS011;9563;49.240;9.088;2023-12-20T05:12:06;5.37;;;4.27;;
18867;SDS011;9563;49.240;9.088;2023-12-20T05:14:34;5.77;;;4.10;;
18867;SDS011;9563;49.240;9.088;2023-12-20T05:17:01;5.23;;;4.03;;
18867;SDS011;9563;49.240;9.088;2023-12-20T05:19:29;6.77;;;4.23;;
18867;SDS011;9563;49.240;9.088;2023-12-20T05:22:00;5.83;;;4.13;;
18867;SDS011;9563;49.240;9.088;2023-12-20T05:24:26;6.70;;;4.00;;
18867;SDS011;9563;49.240;9.088;2023-12-20T05:26:53;5.53;;;4.20;;
18867;SDS011;9563;49.240;9.088;2023-12-20T05:29:20;5.73;;;4.17;;
18867;SDS011;9563;49.240;9.088;2023-12-20T05:31:48;5.20;;;3.83;;
18867;SDS011;9563;49.240;9.088;2023-12-20T05:34:14;4.67;;;3.43;;
18867;SDS011;9563;49.240;9.088;2023-12-20T05:36:42;6.63;;;3.90;;
18867;SDS011;9563;49.240;9.088;2023-12-20T05:39:09;5.60;;;3.30;;
18867;SDS011;9563;49.240;9.088;2023-12-20T05:41:36;6.70;;;3.80;;
18867;SDS011;9563;49.240;9.088;2023-12-20T05:44:03;6.17;;;3.33;;
18867;SDS011;9563;49.240;9.088;2023-12-20T05:46:30;3.90;;;3.00;;
18867;SDS011;9563;49.240;9.088;2023-12-20T05:48:58;4.83;;;3.30;;
18867;SDS011;9563;49.240;9.088;2023-12-20T05:51:24;3.97;;;3.17;;
18867;SDS011;9563;49.240;9.088;2023-12-20T05:53:53;6.83;;;3.80;;
18867;SDS011;9563;49.240;9.088;2023-12-20T05:56:19;6.23;;;3.47;;
18867;SDS011;9563;49.240;9.088;2023-12-20T05:58:47;8.20;;;3.93;;
18867;SDS011;9563;49.240;9.088;2023-12-20T06:01:14;5.17;;;3.70;;
18867;SDS011;9563;49.240;9.088;2023-12-20T06:03:42;6.67;;;4.17;;
18867;SDS011;9563;49.240;9.088;2023-12-20T06:06:09;6.80;;;4.00;;
18867;SDS011;9563;49.240;9.088;2023-12-20T06:08:37;6.07;;;4.10;;
18867;SDS011;9563;49.240;9.088;2023-12-20T06:11:06;6.43;;;4.23;;
18867;SDS011;9563;49.240;9.088;2023-12-20T06:13:33;6.57;;;4.50;;
18867;SDS011;9563;49.240;9.088;2023-12-20T06:16:00;10.20;;;5.30;;
18867;SDS011;9563;49.240;9.088;2023-12-20T06:18:27;7.10;;;4.90;;
18867;SDS011;9563;49.240;9.088;2023-12-20T06:20:54;6.30;;;4.47;;
18867;SDS011;9563;49.240;9.088;2023-12-20T06:23:21;6.50;;;4.70;;
18867;SDS011;9563;49.240;9.088;2023-12-20T06:25:48;5.60;;;4.27;;
18867;SDS011;9563;49.240;9.088;2023-12-20T06:28:18;7.63;;;4.47;;
18867;SDS011;9563;49.240;9.088;2023-12-20T06:30:45;8.47;;;4.53;;
18867;SDS011;9563;49.240;9.088;2023-12-20T06:33:12;9.40;;;5.27;;
18867;SDS011;9563;49.240;9.088;2023-12-20T06:35:39;6.30;;;4.77;;
18867;SDS011;9563;49.240;9.088;2023-12-20T06:38:05;5.13;;;4.27;;
18867;SDS011;9563;49.240;9.088;2023-12-20T06:40:33;8.73;;;5.17;;
18867;SDS011;9563;49.240;9.088;2023-12-20T06:43:00;9.73;;;5.77;;
18867;SDS011;9563;49.240;9.088;2023-12-20T06:45:28;9.07;;;5.40;;
18867;SDS011;9563;49.240;9.088;2023-12-20T06:47:55;8.03;;;5.20;;
18867;SDS011;9563;49.240;9.088;2023-12-20T06:50:22;8.37;;;5.53;;
18867;SDS011;9563;49.240;9.088;2023-12-20T06:52:49;9.37;;;5.47;;
18867;SDS011;9563;49.240;9.088;2023-12-20T06:55:16;7.67;;;5.00;;
18867;SDS011;9563;49.240;9.088;2023-12-20T06:57:43;6.67;;;4.50;;
18867;SDS011;9563;49.240;9.088;2023-12-20T07:00:12;9.93;;;4.17;;
18867;SDS011;9563;49.240;9.088;2023-12-20T07:02:41;10.77;;;4.00;;
18867;SDS011;9563;49.240;9.088;2023-12-20T07:05:08;9.97;;;4.83;;
18867;SDS011;9563;49.240;9.088;2023-12-20T07:07:35;6.77;;;4.60;;
18867;SDS011;9563;49.240;9.088;2023-12-20T07:10:02;7.43;;;4.83;;
18867;SDS011;9563;49.240;9.088;2023-12-20T07:12:29;8.50;;;4.10;;
18867;SDS011;9563;49.240;9.088;2023-12-20T07:14:56;5.17;;;4.23;;
18867;SDS011;9563;49.240;9.088;2023-12-20T07:17:23;6.90;;;3.80;;
18867;SDS011;9563;49.240;9.088;2023-12-20T07:19:51;6.80;;;4.03;;
18867;SDS011;9563;49.240;9.088;2023-12-20T07:22:18;4.53;;;3.53;;
18867;SDS011;9563;49.240;9.088;2023-12-20T07:24:45;4.83;;;3.40;;
18867;SDS011;9563;49.240;9.088;2023-12-20T07:27:13;7.43;;;3.67;;
18867;SDS011;9563;49.240;9.088;2023-12-20T07:29:40;7.10;;;3.63;;
18867;SDS011;9563;49.240;9.088;2023-12-20T07:32:07;5.13;;;3.53;;
18867;SDS011;9563;49.240;9.088;2023-12-20T07:34:34;7.50;;;3.90;;
18867;SDS011;9563;49.240;9.088;2023-12-20T07:37:02;4.93;;;3.40;;
18867;SDS011;9563;49.240;9.088;2023-12-20T07:39:29;5.17;;;3.30;;
18867;SDS011;9563;49.240;9.088;2023-12-20T07:41:56;4.93;;;3.10;;
18867;SDS011;9563;49.240;9.088;2023-12-20T07:44:23;6.97;;;3.70;;
18867;SDS011;9563;49.240;9.088;2023-12-20T07:46:50;4.03;;;3.10;;
18867;SDS011;9563;49.240;9.088;2023-12-20T07:49:16;6.80;;;3.30;;
18867;SDS011;9563;49.240;9.088;2023-12-20T07:51:44;7.83;;;2.80;;
18867;SDS011;9563;49.240;9.088;2023-12-20T07:54:13;7.33;;;3.10;;
18867;SDS011;9563;49.240;9.088;2023-12-20T07:56:40;8.47;;;3.53;;
18867;SDS011;9563;49.240;9.088;2023-12-20T07:59:07;4.30;;;3.07;;
18867;SDS011;9563;49.240;9.088;2023-12-20T08:01:33;5.13;;;3.30;;
18867;SDS011;9563;49.240;9.088;2023-12-20T08:04:01;7.83;;;3.57;;
18867;SDS011;9563;49.240;9.088;2023-12-20T08:06:28;6.47;;;3.47;;
18867;SDS011;9563;49.240;9.088;2023-12-20T08:08:54;5.67;;;3.60;;
18867;SDS011;9563;49.240;9.088;2023-12-20T08:11:23;10.30;;;3.93;;
18867;SDS011;9563;49.240;9.088;2023-12-20T08:13:50;6.50;;;3.73;;
18867;SDS011;9563;49.240;9.088;2023-12-20T08:16:17;7.03;;;4.40;;
18867;SDS011;9563;49.240;9.088;2023-12-20T08:18:44;7.40;;;4.90;;
18867;SDS011;9563;49.240;9.088;2023-12-20T08:21:11;6.90;;;4.70;;
18867;SDS011;9563;49.240;9.088;2023-12-20T08:23:38;6.57;;;4.47;;
18867;SDS011;9563;49.240;9.088;2023-12-20T08:26:04;7.73;;;4.93;;
18867;SDS011;9563;49.240;9.088;2023-12-20T08:28:33;7.87;;;5.30;;
18867;SDS011;9563;49.240;9.088;2023-12-20T08:31:00;11.20;;;6.10;;
18867;SDS011;9563;49.240;9.088;2023-12-20T08:33:27;9.87;;;6.57;;
18867;SDS011;9563;49.240;9.088;2023-12-20T08:35:54;9.83;;;5.73;;
18867;SDS011;9563;49.240;9.088;2023-12-20T08:38:21;9.03;;;5.87;;
18867;SDS011;9563;49.240;9.088;2023-12-20T08:40:48;8.70;;;6.07;;
18867;SDS011;9563;49.240;9.088;2023-12-20T08:43:15;8.83;;;5.30;;
18867;SDS011;9563;49.240;9.088;2023-12-20T08:45:43;11.33;;;5.83;;
18867;SDS011;9563;49.240;9.088;2023-12-20T08:48:10;8.93;;;5.63;;
18867;SDS011;9563;49.240;9.088;2023-12-20T08:50:37;8.93;;;5.93;;
18867;SDS011;9563;49.240;9.088;2023-12-20T08:53:04;6.37;;;4.73;;
18867;SDS011;9563;49.240;9.088;2023-12-20T08:55:31;7.53;;;4.70;;
18867;SDS011;9563;49.240;9.088;2023-12-20T08:57:58;6.63;;;4.63;;
18867;SDS011;9563;49.240;9.088;2023-12-20T09:00:25;7.20;;;4.93;;
18867;SDS011;9563;49.240;9.088;2023-12-20T09:02:54;10.33;;;4.53;;
18867;SDS011;9563;49.240;9.088;2023-12-20T09:05:22;6.90;;;4.70;;
18867;SDS011;9563;49.240;9.088;2023-12-20T09:07:51;6.67;;;4.60;;
18867;SDS011;9563;49.240;9.088;2023-12-20T09:10:18;6.77;;;3.90;;
18867;SDS011;9563;49.240;9.088;2023-12-20T09:12:47;6.17;;;3.87;;
18867;SDS011;9563;49.240;9.088;2023-12-20T09:15:14;5.97;;;3.83;;
18867;SDS011;9563;49.240;9.088;2023-12-20T09:17:41;8.07;;;4.10;;
18867;SDS011;9563;49.240;9.088;2023-12-20T09:20:11;7.90;;;4.10;;
18867;SDS011;9563;49.240;9.088;2023-12-20T09:22:38;5.40;;;3.40;;
18867;SDS011;9563;49.240;9.088;2023-12-20T09:25:07;5.40;;;3.43;;
18867;SDS011;9563;49.240;9.088;2023-12-20T09:27:35;8.27;;;2.93;;
18867;SDS011;9563;49.240;9.088;2023-12-20T09:30:02;6.67;;;3.00;;
18867;SDS011;9563;49.240;9.088;2023-12-20T09:32:30;6.17;;;2.67;;
18867;SDS011;9563;49.240;9.088;2023-12-20T09:34:57;4.47;;;2.40;;
18867;SDS011;9563;49.240;9.088;2023-12-20T09:37:26;8.47;;;2.90;;
18867;SDS011;9563;49.240;9.088;2023-12-20T09:39:53;4.63;;;3.10;;
18867;SDS011;9563;49.240;9.088;2023-12-20T09:42:21;6.43;;;2.73;;
18867;SDS011;9563;49.240;9.088;2023-12-20T09:44:55;6.93;;;2.57;;
18867;SDS011;9563;49.240;9.088;2023-12-20T09:47:26;4.30;;;2.60;;
18867;SDS011;9563;49.240;9.088;2023-12-20T09:49:53;7.10;;;2.57;;
18867;SDS011;9563;49.240;9.088;2023-12-20T09:52:20;4.40;;;2.53;;
18867;SDS011;9563;49.240;9.088;2023-12-20T09:54:51;10.73;;;2.47;;
18867;SDS011;9563;49.240;9.088;2023-12-20T09:57:20;7.60;;;2.20;;
18867;SDS011;9563;49.240;9.088;2023-12-20T09:59:47;6.20;;;2.00;;
18867;SDS011;9563;49.240;9.088;2023-12-20T10:02:14;4.47;;;2.10;;
18867;SDS011;9563;49.240;9.088;2023-12-20T10:04:47;10.03;;;2.50;;
18867;SDS011;9563;49.240;9.088;2023-12-20T10:07:14;5.03;;;2.27;;
18867;SDS011;9563;49.240;9.088;2023-12-20T10:09:42;4.03;;;2.00;;
18867;SDS011;9563;49.240;9.088;2023-12-20T10:12:11;10.93;;;3.22;;
18867;SDS011;9563;49.240;9.088;2023-12-20T10:14:38;7.97;;;2.30;;
18867;SDS011;9563;49.240;9.088;2023-12-20T10:17:05;9.70;;;2.30;;
18867;SDS011;9563;49.240;9.088;2023-12-20T10:19:34;11.60;;;2.40;;
18867;SDS011;9563;49.240;9.088;2023-12-20T10:22:00;10.40;;;2.47;;
18867;SDS011;9563;49.240;9.088;2023-12-20T10:24:30;11.07;;;2.33;;
18867;SDS011;9563;49.240;9.088;2023-12-20T10:27:03;10.03;;;2.40;;
18867;SDS011;9563;49.240;9.088;2023-12-20T10:29:35;4.80;;;2.00;;
18867;SDS011;9563;49.240;9.088;2023-12-20T10:34:48;3.97;;;2.00;;
18867;SDS011;9563;49.240;9.088;2023-12-20T10:37:15;9.30;;;2.53;;
18867;SDS011;9563;49.240;9.088;2023-12-20T10:39:43;5.07;;;2.77;;
18867;SDS011;9563;49.240;9.088;2023-12-20T10:42:14;2.90;;;1.90;;
18867;SDS011;9563;49.240;9.088;2023-12-20T10:44:43;6.43;;;2.23;;
18867;SDS011;9563;49.240;9.088;2023-12-20T10:47:10;14.50;;;2.50;;
18867;SDS011;9563;49.240;9.088;2023-12-20T10:49:38;5.80;;;1.70;;
18867;SDS011;9563;49.240;9.088;2023-12-20T10:52:06;6.53;;;2.00;;
18867;SDS011;9563;49.240;9.088;2023-12-20T10:54:35;5.87;;;1.90;;
18867;SDS011;9563;49.240;9.088;2023-12-20T10:57:02;7.47;;;2.00;;
18867;SDS011;9563;49.240;9.088;2023-12-20T10:59:33;9.23;;;2.17;;
18867;SDS011;9563;49.240;9.088;2023-12-20T11:02:04;6.97;;;2.50;;
18867;SDS011;9563;49.240;9.088;2023-12-20T11:04:35;6.53;;;2.23;;
18867;SDS011;9563;49.240;9.088;2023-12-20T11:07:12;6.70;;;2.10;;
18867;SDS011;9563;49.240;9.088;2023-12-20T11:09:47;6.50;;;2.20;;
18867;SDS011;9563;49.240;9.088;2023-12-20T11:12:25;15.13;;;2.57;;
18867;SDS011;9563;49.240;9.088;2023-12-20T11:15:01;7.57;;;1.47;;
18867;SDS011;9563;49.240;9.088;2023-12-20T11:17:31;6.97;;;1.67;;
18867;SDS011;9563;49.240;9.088;2023-12-20T11:20:04;8.80;;;2.20;;
18867;SDS011;9563;49.240;9.088;2023-12-20T11:22:35;6.57;;;1.60;;
18867;SDS011;9563;49.240;9.088;2023-12-20T11:25:03;9.47;;;2.00;;
18867;SDS011;9563;49.240;9.088;2023-12-20T11:27:33;9.77;;;2.40;;
18867;SDS011;9563;49.240;9.088;2023-12-20T11:30:02;7.63;;;1.53;;
18867;SDS011;9563;49.240;9.088;2023-12-20T11:32:35;12.07;;;2.13;;
18867;SDS011;9563;49.240;9.088;2023-12-20T11:35:16;4.93;;;1.73;;
18867;SDS011;9563;49.240;9.088;2023-12-20T11:37:45;9.80;;;2.30;;
18867;SDS011;9563;49.240;9.088;2023-12-20T11:40:13;11.50;;;2.37;;
18867;SDS011;9563;49.240;9.088;2023-12-20T11:42:42;6.20;;;1.80;;
18867;SDS011;9563;49.240;9.088;2023-12-20T11:45:10;10.47;;;2.00;;
18867;SDS011;9563;49.240;9.088;2023-12-20T11:47:42;9.23;;;2.10;;
18867;SDS011;9563;49.240;9.088;2023-12-20T11:50:11;6.03;;;1.93;;
18867;SDS011;9563;49.240;9.088;2023-12-20T11:52:38;4.23;;;2.00;;
18867;SDS011;9563;49.240;9.088;2023-12-20T11:55:05;18.73;;;2.80;;
18867;SDS011;9563;49.240;9.088;2023-12-20T11:57:33;12.00;;;2.57;;
18867;SDS011;9563;49.240;9.088;2023-12-20T12:00:00;10.87;;;2.33;;
18867;SDS011;9563;49.240;9.088;2023-12-20T12:02:28;7.10;;;1.90;;
18867;SDS011;9563;49.240;9.088;2023-12-20T12:04:56;11.30;;;2.20;;
18867;SDS011;9563;49.240;9.088;2023-12-20T12:07:24;11.30;;;2.40;;
18867;SDS011;9563;49.240;9.088;2023-12-20T12:09:51;2.97;;;2.20;;
18867;SDS011;9563;49.240;9.088;2023-12-20T12:12:18;6.03;;;2.63;;
18867;SDS011;9563;49.240;9.088;2023-12-20T12:14:46;11.43;;;2.90;;
18867;SDS011;9563;49.240;9.088;2023-12-20T12:17:13;10.20;;;3.03;;
18867;SDS011;9563;49.240;9.088;2023-12-20T12:20:02;10.20;;;2.87;;
18867;SDS011;9563;49.240;9.088;2023-12-20T12:22:30;14.97;;;3.27;;
18867;SDS011;9563;49.240;9.088;2023-12-20T12:24:59;12.10;;;2.77;;
18867;SDS011;9563;49.240;9.088;2023-12-20T12:27:35;12.17;;;3.07;;
18867;SDS011;9563;49.240;9.088;2023-12-20T12:30:03;10.63;;;2.90;;
18867;SDS011;9563;49.240;9.088;2023-12-20T12:32:32;9.97;;;3.13;;
18867;SDS011;9563;49.240;9.088;2023-12-20T12:34:59;10.57;;;3.37;;
18867;SDS011;9563;49.240;9.088;2023-12-20T12:37:27;10.83;;;2.80;;
18867;SDS011;9563;49.240;9.088;2023-12-20T12:39:59;12.10;;;2.83;;
18867;SDS011;9563;49.240;9.088;2023-12-20T12:42:26;10.47;;;3.37;;
18867;SDS011;9563;49.240;9.088;2023-12-20T12:44:54;10.13;;;2.70;;
18867;SDS011;9563;49.240;9.088;2023-12-20T12:47:21;9.17;;;3.00;;
18867;SDS011;9563;49.240;9.088;2023-12-20T12:49:49;11.93;;;2.80;;
18867;SDS011;9563;49.240;9.088;2023-12-20T12:52:17;11.00;;;2.80;;
18867;SDS011;9563;49.240;9.088;2023-12-20T12:54:46;8.87;;;2.60;;
18867;SDS011;9563;49.240;9.088;2023-12-20T12:57:13;10.10;;;2.47;;
18867;SDS011;9563;49.240;9.088;2023-12-20T12:59:41;11.77;;;3.50;;
18867;SDS011;9563;49.240;9.088;2023-12-20T13:02:09;8.83;;;2.80;;
18867;SDS011;9563;49.240;9.088;2023-12-20T13:04:35;7.50;;;2.90;;
18867;SDS011;9563;49.240;9.088;2023-12-20T13:07:03;12.13;;;3.40;;
18867;SDS011;9563;49.240;9.088;2023-12-20T13:09:30;9.20;;;3.30;;
18867;SDS011;9563;49.240;9.088;2023-12-20T13:11:59;12.43;;;2.70;;
18867;SDS011;9563;49.240;9.088;2023-12-20T13:14:28;10.63;;;2.77;;
18867;SDS011;9563;49.240;9.088;2023-12-20T13:16:55;5.97;;;2.80;;
18867;SDS011;9563;49.240;9.088;2023-12-20T13:19:22;13.73;;;2.70;;
18867;SDS011;9563;49.240;9.088;2023-12-20T13:21:50;11.70;;;3.10;;
18867;SDS011;9563;49.240;9.088;2023-12-20T13:24:17;7.03;;;2.97;;
18867;SDS011;9563;49.240;9.088;2023-12-20T13:26:44;13.67;;;3.00;;
18867;SDS011;9563;49.240;9.088;2023-12-20T13:29:12;14.63;;;2.97;;
18867;SDS011;9563;49.240;9.088;2023-12-20T13:31:40;9.97;;;3.13;;
18867;SDS011;9563;49.240;9.088;2023-12-20T13:34:07;10.47;;;2.13;;
18867;SDS011;9563;49.240;9.088;2023-12-20T13:36:33;13.20;;;2.93;;
18867;SDS011;9563;49.240;9.088;2023-12-20T13:39:01;13.90;;;2.97;;
18867;SDS011;9563;49.240;9.088;2023-12-20T13:41:30;13.47;;;2.70;;
18867;SDS011;9563;49.240;9.088;2023-12-20T13:43:57;13.57;;;3.47;;
18867;SDS011;9563;49.240;9.088;2023-12-20T13:46:25;10.53;;;2.83;;
18867;SDS011;9563;49.240;9.088;2023-12-20T13:48:52;17.33;;;3.10;;
18867;SDS011;9563;49.240;9.088;2023-12-20T13:51:20;9.03;;;3.10;;
18867;SDS011;9563;49.240;9.088;2023-12-20T13:53:47;12.53;;;2.90;;
18867;SDS011;9563;49.240;9.088;2023-12-20T13:56:14;10.13;;;2.70;;
18867;SDS011;9563;49.240;9.088;2023-12-20T13:58:41;10.67;;;3.17;;
18867;SDS011;9563;49.240;9.088;2023-12-20T14:01:09;10.73;;;3.30;;
18867;SDS011;9563;49.240;9.088;2023-12-20T14:03:38;10.23;;;3.37;;
18867;SDS011;9563;49.240;9.088;2023-12-20T14:06:06;13.20;;;3.63;;
18867;SDS011;9563;49.240;9.088;2023-12-20T14:08:33;14.30;;;3.20;;
18867;SDS011;9563;49.240;9.088;2023-12-20T14:11:01;12.47;;;3.23;;
18867;SDS011;9563;49.240;9.088;2023-12-20T14:13:28;12.50;;;3.40;;
18867;SDS011;9563;49.240;9.088;2023-12-20T14:15:55;13.57;;;3.97;;
18867;SDS011;9563;49.240;9.088;2023-12-20T14:18:23;13.67;;;3.17;;
18867;SDS011;9563;49.240;9.088;2023-12-20T14:20:52;9.07;;;3.13;;
18867;SDS011;9563;49.240;9.088;2023-12-20T14:23:19;13.40;;;3.60;;
18867;SDS011;9563;49.240;9.088;2023-12-20T14:25:46;8.37;;;3.63;;
18867;SDS011;9563;49.240;9.088;2023-12-20T14:28:14;13.03;;;3.30;;
18867;SDS011;9563;49.240;9.088;2023-12-20T14:30:41;14.53;;;3.27;;
18867;SDS011;9563;49.240;9.088;2023-12-20T14:33:08;17.17;;;4.60;;
18867;SDS011;9563;49.240;9.088;2023-12-20T14:35:35;13.47;;;3.90;;
18867;SDS011;9563;49.240;9.088;2023-12-20T14:38:03;21.20;;;4.30;;
18867;SDS011;9563;49.240;9.088;2023-12-20T14:40:31;14.53;;;3.00;;
18867;SDS011;9563;49.240;9.088;2023-12-20T14:42:58;13.03;;;3.43;;
18867;SDS011;9563;49.240;9.088;2023-12-20T14:45:26;7.53;;;3.10;;
18867;SDS011;9563;49.240;9.088;2023-12-20T14:47:53;7.23;;;2.90;;
18867;SDS011;9563;49.240;9.088;2023-12-20T14:50:20;8.30;;;3.00;;
18867;SDS011;9563;49.240;9.088;2023-12-20T14:52:47;14.17;;;3.00;;
18867;SDS011;9563;49.240;9.088;2023-12-20T14:55:16;14.63;;;3.40;;
18867;SDS011;9563;49.240;9.088;2023-12-20T14:57:43;11.80;;;3.00;;
18867;SDS011;9563;49.240;9.088;2023-12-20T15:00:10;5.80;;;2.07;;
18867;SDS011;9563;49.240;9.088;2023-12-20T15:02:41;15.73;;;3.57;;
18867;SDS011;9563;49.240;9.088;2023-12-20T15:05:08;11.83;;;2.53;;
18867;SDS011;9563;49.240;9.088;2023-12-20T15:07:35;12.47;;;2.70;;
18867;SDS011;9563;49.240;9.088;2023-12-20T15:10:03;9.77;;;2.77;;
18867;SDS011;9563;49.240;9.088;2023-12-20T15:12:32;9.87;;;3.17;;
18867;SDS011;9563;49.240;9.088;2023-12-20T15:14:59;9.73;;;2.83;;
18867;SDS011;9563;49.240;9.088;2023-12-20T15:17:26;10.23;;;2.50;;
18867;SDS011;9563;49.240;9.088;2023-12-20T15:19:53;6.23;;;2.47;;
18867;SDS011;9563;49.240;9.088;2023-12-20T15:22:20;6.13;;;2.37;;
18867;SDS011;9563;49.240;9.088;2023-12-20T15:24:47;15.07;;;2.83;;
18867;SDS011;9563;49.240;9.088;2023-12-20T15:27:16;12.23;;;3.37;;
18867;SDS011;9563;49.240;9.088;2023-12-20T15:29:45;10.13;;;2.53;;
18867;SDS011;9563;49.240;9.088;2023-12-20T15:32:14;14.63;;;3.03;;
18867;SDS011;9563;49.240;9.088;2023-12-20T15:34:43;14.60;;;3.23;;
18867;SDS011;9563;49.240;9.088;2023-12-20T15:37:10;9.90;;;2.87;;
18867;SDS011;9563;49.240;9.088;2023-12-20T15:39:37;12.20;;;2.90;;
18867;SDS011;9563;49.240;9.088;2023-12-20T15:42:04;10.47;;;3.17;;
18867;SDS011;9563;49.240;9.088;2023-12-20T15:44:31;23.60;;;3.67;;
18867;SDS011;9563;49.240;9.088;2023-12-20T15:47:00;15.37;;;3.63;;
18867;SDS011;9563;49.240;9.088;2023-12-20T15:49:27;17.20;;;3.20;;
18867;SDS011;9563;49.240;9.088;2023-12-20T15:51:54;15.37;;;3.10;;
18867;SDS011;9563;49.240;9.088;2023-12-20T15:54:21;17.63;;;3.67;;
18867;SDS011;9563;49.240;9.088;2023-12-20T15:56:48;13.70;;;3.00;;
18867;SDS011;9563;49.240;9.088;2023-12-20T15:59:15;6.80;;;2.40;;
18867;SDS011;9563;49.240;9.088;2023-12-20T16:01:42;13.53;;;3.03;;
18867;SDS011;9563;49.240;9.088;2023-12-20T16:04:10;9.60;;;3.00;;
18867;SDS011;9563;49.240;9.088;2023-12-20T16:06:37;13.17;;;2.73;;
18867;SDS011;9563;49.240;9.088;2023-12-20T16:09:04;12.43;;;2.47;;
18867;SDS011;9563;49.240;9.088;2023-12-20T16:11:32;10.23;;;2.97;;
18867;SDS011;9563;49.240;9.088;2023-12-20T16:13:59;12.00;;;2.70;;
18867;SDS011;9563;49.240;9.088;2023-12-20T16:16:26;17.07;;;3.73;;
18867;SDS011;9563;49.240;9.088;2023-12-20T16:18:53;14.73;;;2.57;;
18867;SDS011;9563;49.240;9.088;2023-12-20T16:21:22;13.90;;;2.87;;
18867;SDS011;9563;49.240;9.088;2023-12-20T16:23:49;7.73;;;2.50;;
18867;SDS011;9563;49.240;9.088;2023-12-20T16:26:16;13.93;;;2.60;;
18867;SDS011;9563;49.240;9.088;2023-12-20T16:28:43;7.50;;;2.17;;
18867;SDS011;9563;49.240;9.088;2023-12-20T16:31:10;23.23;;;3.27;;
18867;SDS011;9563;49.240;9.088;2023-12-20T16:33:37;14.90;;;2.67;;
18867;SDS011;9563;49.240;9.088;2023-12-20T16:36:04;13.27;;;2.77;;
18867;SDS011;9563;49.240;9.088;2023-12-20T16:38:33;9.13;;;2.57;;
18867;SDS011;9563;49.240;9.088;2023-12-20T16:41:00;16.80;;;2.80;;
18867;SDS011;9563;49.240;9.088;2023-12-20T16:43:28;15.07;;;2.50;;
18867;SDS011;9563;49.240;9.088;2023-12-20T16:45:55;6.30;;;1.77;;
18867;SDS011;9563;49.240;9.088;2023-12-20T16:48:22;14.83;;;2.37;;
18867;SDS011;9563;49.240;9.088;2023-12-20T16:50:49;5.50;;;2.33;;
18867;SDS011;9563;49.240;9.088;2023-12-20T16:53:16;15.27;;;3.63;;
18867;SDS011;9563;49.240;9.088;2023-12-20T16:55:46;17.30;;;2.57;;
18867;SDS011;9563;49.240;9.088;2023-12-20T16:58:13;9.57;;;2.50;;
18867;SDS011;9563;49.240;9.088;2023-12-20T17:00:40;13.50;;;2.60;;
18867;SDS011;9563;49.240;9.088;2023-12-20T17:03:07;11.27;;;2.87;;
18867;SDS011;9563;49.240;9.088;2023-12-20T17:05:34;7.10;;;2.27;;
18867;SDS011;9563;49.240;9.088;2023-12-20T17:08:01;9.77;;;2.50;;
18867;SDS011;9563;49.240;9.088;2023-12-20T17:10:30;6.80;;;2.30;;
18867;SDS011;9563;49.240;9.088;2023-12-20T17:12:58;11.53;;;2.67;;
18867;SDS011;9563;49.240;9.088;2023-12-20T17:15:25;14.73;;;3.27;;
18867;SDS011;9563;49.240;9.088;2023-12-20T17:17:52;9.10;;;2.47;;
18867;SDS011;9563;49.240;9.088;2023-12-20T17:20:19;8.97;;;2.47;;
18867;SDS011;9563;49.240;9.088;2023-12-20T17:22:46;9.40;;;2.80;;
18867;SDS011;9563;49.240;9.088;2023-12-20T17:25:13;10.93;;;2.70;;
18867;SDS011;9563;49.240;9.088;2023-12-20T17:27:41;11.00;;;2.67;;
18867;SDS011;9563;49.240;9.088;2023-12-20T17:30:12;11.80;;;3.20;;
18867;SDS011;9563;49.240;9.088;2023-12-20T17:32:41;10.07;;;2.10;;
18867;SDS011;9563;49.240;9.088;2023-12-20T17:35:13;10.17;;;2.40;;
18867;SDS011;9563;49.240;9.088;2023-12-20T17:37:40;8.30;;;2.10;;
18867;SDS011;9563;49.240;9.088;2023-12-20T17:40:08;13.43;;;2.40;;
18867;SDS011;9563;49.240;9.088;2023-12-20T17:42:35;10.37;;;2.20;;
18867;SDS011;9563;49.240;9.088;2023-12-20T17:45:02;11.27;;;2.50;;
18867;SDS011;9563;49.240;9.088;2023-12-20T17:47:31;6.60;;;1.80;;
18867;SDS011;9563;49.240;9.088;2023-12-20T17:49:58;9.63;;;1.90;;
18867;SDS011;9563;49.240;9.088;2023-12-20T17:52:25;8.47;;;2.00;;
18867;SDS011;9563;49.240;9.088;2023-12-20T17:54:52;7.90;;;2.27;;
18867;SDS011;9563;49.240;9.088;2023-12-20T17:57:19;7.90;;;2.00;;
18867;SDS011;9563;49.240;9.088;2023-12-20T17:59:48;11.00;;;2.73;;
18867;SDS011;9563;49.240;9.088;2023-12-20T18:02:15;7.10;;;1.67;;
18867;SDS011;9563;49.240;9.088;2023-12-20T18:04:44;6.97;;;1.90;;
18867;SDS011;9563;49.240;9.088;2023-12-20T18:07:11;7.60;;;2.20;;
18867;SDS011;9563;49.240;9.088;2023-12-20T18:09:38;11.27;;;2.10;;
18867;SDS011;9563;49.240;9.088;2023-12-20T18:12:06;13.40;;;3.20;;
18867;SDS011;9563;49.240;9.088;2023-12-20T18:14:33;7.03;;;1.80;;
18867;SDS011;9563;49.240;9.088;2023-12-20T18:17:00;7.60;;;1.93;;
18867;SDS011;9563;49.240;9.088;2023-12-20T18:19:27;5.63;;;1.63;;
18867;SDS011;9563;49.240;9.088;2023-12-20T18:21:56;8.20;;;1.80;;
18867;SDS011;9563;49.240;9.088;2023-12-20T18:24:23;11.27;;;1.80;;
18867;SDS011;9563;49.240;9.088;2023-12-20T18:26:50;3.83;;;1.80;;
18867;SDS011;9563;49.240;9.088;2023-12-20T18:29:17;12.90;;;1.83;;
18867;SDS011;9563;49.240;9.088;2023-12-20T18:31:44;8.63;;;2.13;;
18867;SDS011;9563;49.240;9.088;2023-12-20T18:34:11;11.37;;;1.83;;
18867;SDS011;9563;49.240;9.088;2023-12-20T18:36:38;5.27;;;1.80;;
18867;SDS011;9563;49.240;9.088;2023-12-20T18:39:06;3.80;;;1.73;;
18867;SDS011;9563;49.240;9.088;2023-12-20T18:41:33;6.27;;;1.93;;
18867;SDS011;9563;49.240;9.088;2023-12-20T18:44:00;3.47;;;1.60;;
18867;SDS011;9563;49.240;9.088;2023-12-20T18:46:28;13.87;;;2.00;;
18867;SDS011;9563;49.240;9.088;2023-12-20T18:48:55;7.93;;;1.53;;
18867;SDS011;9563;49.240;9.088;2023-12-20T18:51:22;7.07;;;1.67;;
18867;SDS011;9563;49.240;9.088;2023-12-20T18:53:49;10.37;;;2.27;;
18867;SDS011;9563;49.240;9.088;2023-12-20T18:56:19;3.20;;;1.27;;
18867;SDS011;9563;49.240;9.088;2023-12-20T18:58:46;5.47;;;1.57;;
18867;SDS011;9563;49.240;9.088;2023-12-20T19:01:13;8.97;;;2.17;;
18867;SDS011;9563;49.240;9.088;2023-12-20T19:03:40;6.60;;;1.47;;
18867;SDS011;9563;49.240;9.088;2023-12-20T19:06:07;7.20;;;1.70;;
18867;SDS011;9563;49.240;9.088;2023-12-20T19:08:34;6.77;;;2.10;;
18867;SDS011;9563;49.240;9.088;2023-12-20T19:11:02;8.57;;;1.67;;
18867;SDS011;9563;49.240;9.088;2023-12-20T19:13:30;4.07;;;1.47;;
18867;SDS011;9563;49.240;9.088;2023-12-20T19:15:57;7.43;;;1.33;;
18867;SDS011;9563;49.240;9.088;2023-12-20T19:18:25;3.97;;;1.47;;
18867;SDS011;9563;49.240;9.088;2023-12-20T19:20:52;4.73;;;1.60;;
18867;SDS011;9563;49.240;9.088;2023-12-20T19:23:20;9.13;;;1.87;;
18867;SDS011;9563;49.240;9.088;2023-12-20T19:25:47;3.13;;;1.30;;
18867;SDS011;9563;49.240;9.088;2023-12-20T19:28:14;6.57;;;1.37;;
18867;SDS011;9563;49.240;9.088;2023-12-20T19:30:43;4.97;;;1.93;;
18867;SDS011;9563;49.240;9.088;2023-12-20T19:33:10;8.27;;;1.90;;
18867;SDS011;9563;49.240;9.088;2023-12-20T19:35:36;7.10;;;1.70;;
18867;SDS011;9563;49.240;9.088;2023-12-20T19:40:45;6.87;;;1.80;;
18867;SDS011;9563;49.240;9.088;2023-12-20T19:43:15;12.43;;;1.80;;
18867;SDS011;9563;49.240;9.088;2023-12-20T19:45:43;5.70;;;1.47;;
18867;SDS011;9563;49.240;9.088;2023-12-20T19:48:10;9.40;;;1.57;;
18867;SDS011;9563;49.240;9.088;2023-12-20T19:50:37;5.37;;;1.63;;
18867;SDS011;9563;49.240;9.088;2023-12-20T19:53:04;2.93;;;1.70;;
18867;SDS011;9563;49.240;9.088;2023-12-20T19:55:31;10.27;;;1.97;;
18867;SDS011;9563;49.240;9.088;2023-12-20T19:57:58;5.53;;;1.50;;
18867;SDS011;9563;49.240;9.088;2023-12-20T20:00:26;7.30;;;1.57;;
18867;SDS011;9563;49.240;9.088;2023-12-20T20:02:56;8.40;;;1.73;;
18867;SDS011;9563;49.240;9.088;2023-12-20T20:05:23;4.53;;;1.70;;